Time;durP1;ratioP1;P1;durP2;ratioP2;P2;SDS_P1;SDS_P2;PMS_P1;PMS_P2;Temp;Humidity;BMP_temperature;BMP_pressure;BME280_temperature;BME280_humidity;BME280_pressure;Samples;Min_cycle;Max_cycle;Signal;HPM_P1;HPM_P2
2022/03/16 06:11:07;;;;;;;;;;;;;;;9.61;100.00;99295.59;4896249;23;19971;-70
2022/03/16 06:13:37;;;;;;;;;;;;;;;9.62;100.00;99297.22;4827859;29;21297;-70
2022/03/16 06:16:04;;;;;;;;;;;;;;;9.66;100.00;99292.50;4828264;29;19948;-70
2022/03/16 06:18:31;;;;;;;;;;;;;;;9.70;100.00;99301.78;4827396;29;19976;-70
2022/03/16 06:20:59;;;;;;;;;;;;;;;9.71;100.00;99299.78;4826134;29;20246;-70
2022/03/16 06:23:26;;;;;;;;;;;;;;;9.74;100.00;99307.44;4828179;29;19958;-70
2022/03/16 06:25:53;;;;;;;;;;;;;;;9.76;100.00;99307.88;4825576;29;19952;-70
2022/03/16 06:28:21;;;;;;;;;;;;;;;9.76;100.00;99305.88;4818355;29;19958;-69
2022/03/16 06:30:48;;;;;;;;;;;;;;;9.80;100.00;99306.78;4839728;29;20236;-70
2022/03/16 06:33:17;;;;;;;;;;;;;;;9.82;100.00;99301.63;4826365;29;19955;-70
2022/03/16 06:36:16;;;;;;;;;;;;;;;9.85;100.00;99303.66;4827927;29;19964;-70
2022/03/16 06:38:43;;;;;;;;;;;;;;;9.92;100.00;99303.03;4825160;29;19973;-70
2022/03/16 06:41:14;;;;;;;;;;;;;;;9.93;100.00;99299.03;4827255;29;20327;-70
2022/03/16 06:43:42;;;;;;;;;;;;;;;9.93;100.00;99294.25;4827166;29;19951;-70
2022/03/16 06:46:09;;;;;;;;;;;;;;;9.97;100.00;99299.13;4824757;29;19948;-70
2022/03/16 06:48:36;;;;;;;;;;;;;;;9.98;100.00;99303.53;4817662;29;19957;-70
2022/03/16 06:51:04;;;;;;;;;;;;;;;10.03;100.00;99301.22;4809647;29;19957;-70
2022/03/16 06:53:31;;;;;;;;;;;;;;;10.06;100.00;99311.66;4793964;29;19955;-70
2022/03/16 06:55:59;;;;;;;;;;;;;;;10.11;100.00;99303.00;4824201;29;19954;-70
2022/03/16 06:58:26;;;;;;;;;;;;;;;10.15;100.00;99309.47;4827810;29;19953;-70
2022/03/16 07:00:53;;;;;;;;;;;;;;;10.21;100.00;99307.19;4827855;29;20351;-70
2022/03/16 07:03:22;;;;;;;;;;;;;;;10.25;100.00;99314.47;4828140;29;20410;-70
2022/03/16 07:05:49;;;;;;;;;;;;;;;10.31;100.00;99309.38;4827501;29;19953;-70
2022/03/16 07:08:16;;;;;;;;;;;;;;;10.37;100.00;99319.88;4827324;29;19949;-70
2022/03/16 07:10:44;;;;;;;;;;;;;;;10.43;100.00;99323.19;4827145;29;19974;-70
2022/03/16 07:13:12;;;;;;;;;;;;;;;10.44;100.00;99330.41;4827551;29;19962;-70
2022/03/16 07:15:41;;;;;;;;;;;;;;;10.51;100.00;99336.91;4829129;29;19950;-70
2022/03/16 07:18:09;;;;;;;;;;;;;;;10.42;100.00;99333.53;4831094;29;19946;-70
2022/03/16 07:20:37;;;;;;;;;;;;;;;10.40;100.00;99330.31;4830256;29;19973;-70
2022/03/16 07:23:05;;;;;;;;;;;;;;;10.46;100.00;99322.44;4830171;29;19952;-70
2022/03/16 07:25:34;;;;;;;;;;;;;;;10.50;100.00;99326.09;4830319;29;19953;-70
2022/03/16 07:28:02;;;;;;;;;;;;;;;10.55;100.00;99318.22;4831153;29;19950;-70
2022/03/16 07:30:29;;;;;;;;;;;;;;;10.61;100.00;99315.91;4813643;29;19949;-70
2022/03/16 07:32:56;;;;;;;;;;;;;;;10.68;100.00;99318.03;4822313;29;19957;-70
2022/03/16 07:35:28;;;;;;;;;;;;;;;10.81;100.00;99314.63;4822711;29;19958;-70
2022/03/16 07:37:56;;;;;;;;;;;;;;;10.89;100.00;99319.19;4827831;29;20258;-70
2022/03/16 07:40:24;;;;;;;;;;;;;;;11.00;100.00;99324.94;4828724;29;20268;-70
2022/03/16 07:42:52;;;;;;;;;;;;;;;11.08;100.00;99333.06;4829771;29;19958;-70
2022/03/16 07:45:20;;;;;;;;;;;;;;;11.20;100.00;99330.06;4829758;29;19944;-70
2022/03/16 07:47:49;;;;;;;;;;;;;;;11.30;100.00;99325.78;4829934;29;19950;-70
2022/03/16 07:50:16;;;;;;;;;;;;;;;11.38;100.00;99319.13;4828273;29;19962;-70
2022/03/16 07:52:44;;;;;;;;;;;;;;;11.40;100.00;99324.34;4829349;29;19957;-70
2022/03/16 07:55:13;;;;;;;;;;;;;;;11.45;100.00;99330.41;4830350;29;20282;-70
2022/03/16 07:57:41;;;;;;;;;;;;;;;11.47;100.00;99335.66;4829243;29;20246;-70
2022/03/16 08:00:10;;;;;;;;;;;;;;;11.57;100.00;99348.97;4828773;29;19969;-70
2022/03/16 08:02:38;;;;;;;;;;;;;;;11.46;100.00;99346.06;4830152;29;20249;-70
2022/03/16 08:05:06;;;;;;;;;;;;;;;11.47;100.00;99346.88;4816755;29;19961;-70
2022/03/16 08:07:36;;;;;;;;;;;;;;;11.42;100.00;99347.19;4824688;29;20542;-70
2022/03/16 08:10:03;;;;;;;;;;;;;;;11.36;100.00;99346.69;4826171;29;19970;-70
2022/03/16 08:12:31;;;;;;;;;;;;;;;11.35;100.00;99349.88;4829686;29;20354;-70
2022/03/16 08:15:00;;;;;;;;;;;;;;;11.36;100.00;99340.28;4811614;29;20351;-70
2022/03/16 08:17:27;;;;;;;;;;;;;;;11.31;100.00;99341.44;4826099;29;20037;-71
2022/03/16 08:19:54;;;;;;;;;;;;;;;11.41;100.00;99343.56;4811160;29;20358;-71
2022/03/16 08:22:29;;;;;;;;;;;;;;;11.45;100.00;99338.81;4823653;29;19955;-70
2022/03/16 08:24:57;;;;;;;;;;;;;;;11.56;100.00;99344.59;4847325;29;19956;-70
2022/03/16 08:27:25;;;;;;;;;;;;;;;11.54;100.00;99347.75;4847008;29;19980;-70
2022/03/16 08:29:54;;;;;;;;;;;;;;;11.58;100.00;99345.00;4847197;29;20244;-70
2022/03/16 08:32:21;;;;;;;;;;;;;;;11.53;100.00;99337.75;4847664;29;19946;-70
2022/03/16 08:34:50;;;;;;;;;;;;;;;11.48;100.00;99335.28;4841678;29;20237;-70
2022/03/16 08:37:18;;;;;;;;;;;;;;;11.48;100.00;99340.88;4847676;29;19974;-70
2022/03/16 08:39:46;;;;;;;;;;;;;;;11.44;100.00;99345.63;4846904;29;19971;-70
2022/03/16 08:42:14;;;;;;;;;;;;;;;11.40;100.00;99338.34;4829018;29;19952;-70
2022/03/16 08:44:42;;;;;;;;;;;;;;;11.36;100.00;99341.09;4828403;29;19950;-70
2022/03/16 08:47:20;;;;;;;;;;;;;;;11.39;100.00;99343.16;4826423;29;19953;-70
2022/03/16 08:49:50;;;;;;;;;;;;;;;11.47;100.00;99344.84;4826531;29;19951;-70
2022/03/16 08:52:17;;;;;;;;;;;;;;;11.52;100.00;99340.91;4825593;29;19955;-70
2022/03/16 08:54:44;;;;;;;;;;;;;;;11.66;100.00;99335.53;4827564;29;19949;-70
2022/03/16 08:57:12;;;;;;;;;;;;;;;11.80;100.00;99336.53;4826163;29;19953;-70
2022/03/16 08:59:41;;;;;;;;;;;;;;;11.88;100.00;99339.44;4825304;29;19967;-70
2022/03/16 09:02:09;;;;;;;;;;;;;;;11.94;100.00;99343.50;4827736;29;20219;-70
2022/03/16 09:04:36;;;;;;;;;;;;;;;12.04;100.00;99338.03;4828233;29;19948;-70
2022/03/16 09:07:04;;;;;;;;;;;;;;;12.04;100.00;99340.03;4836296;29;19976;-70
2022/03/16 09:09:34;;;;;;;;;;;;;;;12.07;100.00;99340.06;4827987;29;20251;-70
2022/03/16 09:12:02;;;;;;;;;;;;;;;12.12;100.00;99342.53;4826936;29;19959;-70
2022/03/16 09:14:29;;;;;;;;;;;;;;;12.17;100.00;99339.41;4824998;29;19948;-70
2022/03/16 09:16:57;;;;;;;;;;;;;;;12.03;100.00;99335.63;4826500;29;20259;-70
2022/03/16 09:19:24;;;;;;;;;;;;;;;12.09;100.00;99340.50;4821086;29;19957;-70
2022/03/16 09:21:51;;;;;;;;;;;;;;;12.18;100.00;99334.56;4823197;29;19969;-70
2022/03/16 09:24:19;;;;;;;;;;;;;;;12.37;100.00;99329.59;4804616;29;19949;-70
2022/03/16 09:26:46;;;;;;;;;;;;;;;12.38;100.00;99334.00;4828008;29;19958;-70
2022/03/16 09:29:16;;;;;;;;;;;;;;;12.47;100.00;99330.91;4820040;29;19956;-70
2022/03/16 09:31:44;;;;;;;;;;;;;;;12.42;100.00;99334.84;4809352;29;19951;-70
2022/03/16 09:34:12;;;;;;;;;;;;;;;12.58;100.00;99336.59;4816106;29;19952;-70
2022/03/16 09:36:42;;;;;;;;;;;;;;;12.63;100.00;99333.44;4827586;29;20373;-70
2022/03/16 09:39:10;;;;;;;;;;;;;;;12.61;100.00;99322.63;4827674;29;19948;-70
2022/03/16 09:41:37;;;;;;;;;;;;;;;12.72;100.00;99325.50;4814036;29;19972;-70
2022/03/16 09:44:06;;;;;;;;;;;;;;;12.88;100.00;99326.06;4809731;29;19962;-70
2022/03/16 09:46:34;;;;;;;;;;;;;;;12.85;100.00;99319.22;4815338;29;20343;-70
2022/03/16 09:49:04;;;;;;;;;;;;;;;12.82;100.00;99317.19;4827512;29;19959;-70
2022/03/16 09:51:35;;;;;;;;;;;;;;;12.87;100.00;99310.41;4827523;29;20259;-70
2022/03/16 09:54:03;;;;;;;;;;;;;;;12.84;100.00;99308.38;4828099;29;20253;-70
2022/03/16 09:56:32;;;;;;;;;;;;;;;13.01;100.00;99308.53;4828125;29;19957;-70
2022/03/16 09:59:00;;;;;;;;;;;;;;;13.19;100.00;99305.88;4821065;29;19964;-70
2022/03/16 10:01:27;;;;;;;;;;;;;;;13.09;100.00;99303.78;4825529;29;20380;-70
2022/03/16 10:03:59;;;;;;;;;;;;;;;12.73;100.00;99297.06;4828383;29;19959;-70
2022/03/16 10:06:27;;;;;;;;;;;;;;;13.08;100.00;99288.16;4833598;29;19949;-70
2022/03/16 10:14:26;;;;;;;;;;;;;;;13.47;100.00;99292.03;4827163;29;19959;-70
2022/03/16 10:19:52;;;;;;;;;;;;;;;13.56;100.00;99275.59;4827161;29;19949;-70
2022/03/16 10:22:25;;;;;;;;;;;;;;;13.66;100.00;99282.47;4826835;29;20267;-70
2022/03/16 10:24:58;;;;;;;;;;;;;;;13.81;100.00;99282.13;4827501;29;19959;-70
2022/03/16 10:27:25;;;;;;;;;;;;;;;13.97;100.00;99280.97;4827769;29;19957;-70
2022/03/16 10:29:53;;;;;;;;;;;;;;;13.97;100.00;99283.78;4827716;29;19952;-70
2022/03/16 10:32:25;;;;;;;;;;;;;;;13.79;100.00;99272.50;4827520;29;20255;-70
2022/03/16 10:34:55;;;;;;;;;;;;;;;13.79;100.00;99264.84;4807918;29;20256;-70
2022/03/16 10:37:23;;;;;;;;;;;;;;;13.92;100.00;99267.28;4825702;29;19964;-70
2022/03/16 10:39:51;;;;;;;;;;;;;;;13.90;100.00;99272.50;4808362;29;19949;-70
2022/03/16 10:47:59;;;;;;;;;;;;;;;14.01;100.00;99250.88;4813099;29;20236;-70
2022/03/16 10:50:26;;;;;;;;;;;;;;;13.96;100.00;99254.88;4829880;29;19958;-70
2022/03/16 10:52:54;;;;;;;;;;;;;;;14.10;100.00;99249.28;4830396;29;19957;-70
2022/03/16 10:55:22;;;;;;;;;;;;;;;14.35;100.00;99244.50;4814768;29;19959;-70
2022/03/16 10:57:50;;;;;;;;;;;;;;;14.50;100.00;99236.09;4830359;29;20251;-70
2022/03/16 11:00:17;;;;;;;;;;;;;;;14.54;100.00;99236.91;4830220;29;19947;-70
2022/03/16 11:02:45;;;;;;;;;;;;;;;14.51;100.00;99243.34;4828758;29;19958;-70
2022/03/16 11:05:18;;;;;;;;;;;;;;;14.59;100.00;99240.13;4831099;29;19954;-70
2022/03/16 11:07:49;;;;;;;;;;;;;;;14.68;100.00;99236.91;4828346;29;19949;-70
2022/03/16 11:10:17;;;;;;;;;;;;;;;14.64;100.00;99228.47;4830149;29;19983;-70
2022/03/16 11:15:31;;;;;;;;;;;;;;;14.96;100.00;99222.81;4829506;29;20247;-70
2022/03/16 11:17:58;;;;;;;;;;;;;;;14.66;100.00;99219.63;4811819;29;20034;-70
2022/03/16 11:20:33;;;;;;;;;;;;;;;14.99;100.00;99221.97;4826972;29;19954;-70
2022/03/16 11:25:57;;;;;;;;;;;;;;;15.11;100.00;99222.38;4829872;29;19955;-70
2022/03/16 11:29:00;;;;;;;;;;;;;;;15.24;100.00;99219.91;4829403;29;19968;-70
2022/03/16 11:31:31;;;;;;;;;;;;;;;15.31;100.00;99210.66;4790848;29;19947;-70
2022/03/16 11:33:59;;;;;;;;;;;;;;;15.36;100.00;99210.22;4826510;29;19957;-70
2022/03/16 11:36:37;;;;;;;;;;;;;;;14.74;100.00;99207.97;4820938;29;19946;-70
2022/03/16 11:39:16;;;;;;;;;;;;;;;14.99;100.00;99200.25;4829637;29;19954;-70
2022/03/16 11:41:53;;;;;;;;;;;;;;;15.13;100.00;99194.63;4828680;29;19968;-70
2022/03/16 11:44:24;;;;;;;;;;;;;;;15.32;100.00;99196.16;4830508;29;19945;-70
2022/03/16 11:46:53;;;;;;;;;;;;;;;15.28;100.00;99197.38;4830257;29;19944;-70
2022/03/16 11:49:30;;;;;;;;;;;;;;;15.31;100.00;99200.16;4814076;29;19958;-70
2022/03/16 11:52:01;;;;;;;;;;;;;;;15.34;100.00;99188.09;4828864;29;19957;-70
2022/03/16 11:54:42;;;;;;;;;;;;;;;15.38;100.00;99188.09;4820001;29;20251;-70
2022/03/16 11:57:10;;;;;;;;;;;;;;;15.40;100.00;99191.28;4813604;29;19956;-70
2022/03/16 11:59:45;;;;;;;;;;;;;;;15.44;100.00;99180.81;4826901;29;19952;-70
2022/03/16 12:02:16;;;;;;;;;;;;;;;15.45;100.00;99185.28;4824503;29;19968;-70
2022/03/16 12:04:46;;;;;;;;;;;;;;;15.37;100.00;99169.56;4802159;29;19982;-70
2022/03/16 12:07:16;;;;;;;;;;;;;;;15.40;100.00;99172.38;4834439;29;19956;-70
2022/03/16 12:09:52;;;;;;;;;;;;;;;15.07;100.00;99173.69;4840308;29;19967;-70
2022/03/16 12:15:11;;;;;;;;;;;;;;;15.24;100.00;99159.94;4825045;29;19948;-70
2022/03/16 12:17:39;;;;;;;;;;;;;;;15.32;100.00;99153.88;4844155;29;20344;-70
2022/03/16 12:20:15;;;;;;;;;;;;;;;15.21;100.00;99158.75;4847321;29;19958;-70
2022/03/16 12:22:47;;;;;;;;;;;;;;;15.25;100.00;99144.66;4847479;29;19974;-70
2022/03/16 12:25:26;;;;;;;;;;;;;;;15.20;100.00;99137.44;4824117;29;20236;-70
2022/03/16 12:31:00;;;;;;;;;;;;;;;15.20;100.00;99133.81;4829134;29;19947;-70
2022/03/16 12:33:29;;;;;;;;;;;;;;;15.36;100.00;99131.31;4839430;29;20366;-70
2022/03/16 12:36:01;;;;;;;;;;;;;;;15.39;100.00;99120.03;4822580;29;19952;-70
2022/03/16 12:38:29;;;;;;;;;;;;;;;15.39;100.00;99120.03;4820399;29;19949;-70
2022/03/16 12:43:46;;;;;;;;;;;;;;;15.38;100.00;99112.00;4821061;29;19956;-70
2022/03/16 12:46:32;;;;;;;;;;;;;;;15.41;100.00;99108.34;4820413;29;19955;-70
2022/03/16 12:49:07;;;;;;;;;;;;;;;14.97;100.00;99106.91;4827077;29;19950;-70
2022/03/16 12:51:48;;;;;;;;;;;;;;;15.21;100.00;99104.44;4822142;29;19953;-70
2022/03/16 12:54:20;;;;;;;;;;;;;;;15.27;100.00;99097.13;4824083;29;20264;-70
2022/03/16 12:56:51;;;;;;;;;;;;;;;15.39;100.00;99096.69;4820648;29;19952;-70
2022/03/16 12:59:22;;;;;;;;;;;;;;;15.30;100.00;99090.69;4819543;29;19957;-71
2022/03/16 13:01:50;;;;;;;;;;;;;;;15.30;100.00;99094.31;4823552;29;20042;-70
2022/03/16 13:04:19;;;;;;;;;;;;;;;15.27;100.00;99085.88;4827870;29;19949;-70
2022/03/16 13:06:46;;;;;;;;;;;;;;;15.16;100.00;99085.91;4828421;29;19958;-70
2022/03/16 13:09:14;;;;;;;;;;;;;;;15.21;100.00;99077.03;4841474;29;19951;-70
2022/03/16 13:11:42;;;;;;;;;;;;;;;15.29;100.00;99078.59;4830465;29;19948;-70
2022/03/16 13:14:16;;;;;;;;;;;;;;;15.40;100.00;99082.19;4830012;29;19958;-70
2022/03/16 13:16:47;;;;;;;;;;;;;;;15.45;100.00;99076.16;4828524;29;20371;-71
2022/03/16 13:19:26;;;;;;;;;;;;;;;15.37;100.00;99082.19;4828679;29;20251;-70
2022/03/16 13:22:02;;;;;;;;;;;;;;;15.33;100.00;99067.34;4828408;29;19963;-70
2022/03/16 13:24:30;;;;;;;;;;;;;;;15.34;100.00;99066.09;4824310;29;19946;-70
2022/03/16 13:26:58;;;;;;;;;;;;;;;15.45;100.00;99058.44;4828704;29;20364;-70
2022/03/16 13:29:28;;;;;;;;;;;;;;;15.48;100.00;99064.03;4827509;29;20368;-70
2022/03/16 13:31:57;;;;;;;;;;;;;;;15.01;100.00;99068.28;4826921;29;19948;-70
2022/03/16 13:34:26;;;;;;;;;;;;;;;15.20;100.00;99052.09;4827799;29;19955;-70
2022/03/16 13:36:54;;;;;;;;;;;;;;;15.29;100.00;99049.63;4823911;29;19956;-70
2022/03/16 13:39:21;;;;;;;;;;;;;;;15.31;100.00;99052.84;4825005;29;19958;-70
2022/03/16 13:42:13;;;;;;;;;;;;;;;15.24;100.00;99058.50;4824015;29;19971;-70
2022/03/16 13:44:49;;;;;;;;;;;;;;;15.11;100.00;99044.88;4819657;29;19969;-70
2022/03/16 13:47:17;;;;;;;;;;;;;;;14.96;100.00;99045.38;4826400;29;19958;-70
2022/03/16 13:49:45;;;;;;;;;;;;;;;14.76;100.00;99047.06;4811891;29;19958;-70
2022/03/16 13:52:16;;;;;;;;;;;;;;;14.70;100.00;99046.66;4823580;29;19957;-70
2022/03/16 13:54:43;;;;;;;;;;;;;;;14.70;100.00;99045.88;4818557;29;19957;-70
2022/03/16 13:57:11;;;;;;;;;;;;;;;14.76;100.00;99033.00;4826762;29;20238;-70
2022/03/16 13:59:40;;;;;;;;;;;;;;;14.84;100.00;99029.72;4813627;29;19956;-70
2022/03/16 14:02:38;;;;;;;;;;;;;;;14.94;100.00;99034.50;4827733;29;20271;-70
2022/03/16 14:05:11;;;;;;;;;;;;;;;14.97;100.00;99036.50;4827711;29;19974;-70
2022/03/16 14:07:39;;;;;;;;;;;;;;;14.91;100.00;99037.34;4827777;29;20368;-70
2022/03/16 14:10:07;;;;;;;;;;;;;;;14.89;100.00;99029.28;4826982;29;19982;-70
2022/03/16 14:12:39;;;;;;;;;;;;;;;14.96;100.00;99029.28;4825836;29;19950;-70
2022/03/16 14:15:16;;;;;;;;;;;;;;;14.82;100.00;99014.44;4826325;29;20228;-70
2022/03/16 14:17:45;;;;;;;;;;;;;;;14.76;100.00;99011.28;4823652;29;19948;-70
2022/03/16 14:20:16;;;;;;;;;;;;;;;14.65;100.00;99009.69;4837747;29;19961;-70
2022/03/16 14:22:45;;;;;;;;;;;;;;;14.65;100.00;99009.69;4837488;29;19963;-70
2022/03/16 14:25:19;;;;;;;;;;;;;;;14.72;100.00;99004.06;4827294;29;20331;-70
2022/03/16 14:27:50;;;;;;;;;;;;;;;14.66;100.00;99016.94;4841945;29;19951;-70
2022/03/16 14:30:17;;;;;;;;;;;;;;;14.61;100.00;99015.34;4832282;29;19952;-70
2022/03/16 14:32:47;;;;;;;;;;;;;;;14.65;100.00;99012.50;4827849;29;19948;-70
2022/03/16 14:35:15;;;;;;;;;;;;;;;14.61;100.00;99001.28;4818084;29;20362;-70
2022/03/16 14:37:43;;;;;;;;;;;;;;;14.71;100.00;98991.97;4809515;29;19976;-70
2022/03/16 14:40:15;;;;;;;;;;;;;;;14.64;100.00;99002.47;4822076;29;19958;-70
2022/03/16 14:42:43;;;;;;;;;;;;;;;14.60;100.00;98996.84;4824031;29;19972;-70
2022/03/16 14:45:11;;;;;;;;;;;;;;;14.61;100.00;98995.66;4826902;29;19948;-67
2022/03/16 14:47:38;;;;;;;;;;;;;;;14.56;100.00;98986.81;4827355;29;19948;-69
2022/03/16 14:50:06;;;;;;;;;;;;;;;14.64;100.00;98980.75;4826957;29;19954;-69
2022/03/16 14:52:34;;;;;;;;;;;;;;;14.32;100.00;98980.88;4827286;29;19954;-70
2022/03/16 14:55:02;;;;;;;;;;;;;;;14.39;100.00;98992.09;4826107;29;19948;-70
2022/03/16 14:57:29;;;;;;;;;;;;;;;14.53;100.00;98991.25;4827258;29;19953;-70
2022/03/16 14:59:57;;;;;;;;;;;;;;;14.50;100.00;98980.78;4828712;29;19953;-70
2022/03/16 15:02:25;;;;;;;;;;;;;;;14.50;100.00;98977.19;4818712;29;19975;-70
2022/03/16 15:04:53;;;;;;;;;;;;;;;14.28;100.00;98973.63;4823785;29;19955;-70
2022/03/16 15:07:20;;;;;;;;;;;;;;;14.49;100.00;98979.19;4826998;29;19949;-70
2022/03/16 15:09:47;;;;;;;;;;;;;;;14.59;100.00;98974.75;4826796;29;20370;-70
2022/03/16 15:12:15;;;;;;;;;;;;;;;14.38;100.00;98978.41;4827625;29;20215;-70
2022/03/16 15:14:42;;;;;;;;;;;;;;;14.29;100.00;98975.22;4827376;29;19951;-70
2022/03/16 15:17:11;;;;;;;;;;;;;;;14.10;100.00;98972.84;4826762;29;19949;-70
2022/03/16 15:19:38;;;;;;;;;;;;;;;14.19;100.00;98976.84;4827203;29;19944;-70
2022/03/16 15:22:05;;;;;;;;;;;;;;;14.12;100.00;98976.88;4825488;29;19957;-70
2022/03/16 15:24:32;;;;;;;;;;;;;;;14.26;100.00;98981.63;4816936;29;19955;-70
2022/03/16 15:27:00;;;;;;;;;;;;;;;14.28;100.00;98974.41;4827259;29;19948;-70
2022/03/16 15:29:28;;;;;;;;;;;;;;;14.22;100.00;98970.41;4827309;29;19972;-70
2022/03/16 15:31:56;;;;;;;;;;;;;;;14.23;100.00;98960.75;4820302;29;20009;-70
2022/03/16 15:34:23;;;;;;;;;;;;;;;14.19;100.00;98982.47;4810765;29;19966;-70
2022/03/16 15:36:51;;;;;;;;;;;;;;;14.13;100.00;98975.66;4823269;29;19959;-70
2022/03/16 15:39:18;;;;;;;;;;;;;;;14.04;100.00;98978.06;4819060;29;19955;-70
2022/03/16 15:44:31;;;;;;;;;;;;;;;13.89;100.00;98987.72;4830073;29;20263;-70
2022/03/16 15:46:59;;;;;;;;;;;;;;;13.82;100.00;98991.38;4829004;29;19957;-69
2022/03/16 15:49:26;;;;;;;;;;;;;;;13.80;100.00;98993.78;4823438;29;19961;-70
2022/03/16 15:51:55;;;;;;;;;;;;;;;13.80;100.00;98996.59;4811188;29;19948;-70
2022/03/16 15:54:23;;;;;;;;;;;;;;;13.76;100.00;98984.56;4811997;29;19957;-70
2022/03/16 15:56:51;;;;;;;;;;;;;;;13.75;100.00;98985.75;4822248;29;19958;-70
2022/03/16 15:59:18;;;;;;;;;;;;;;;13.71;100.00;98984.97;4834650;29;19959;-70
2022/03/16 16:01:47;;;;;;;;;;;;;;;13.77;100.00;98977.72;4827912;29;19957;-70
2022/03/16 16:04:14;;;;;;;;;;;;;;;13.69;100.00;98978.13;4834043;29;20389;-69
2022/03/16 16:06:46;;;;;;;;;;;;;;;13.66;100.00;98985.38;4825478;29;19955;-70
2022/03/16 16:09:14;;;;;;;;;;;;;;;13.70;100.00;98983.34;4824208;29;19951;-70
2022/03/16 16:11:42;;;;;;;;;;;;;;;13.72;100.00;98982.94;4826381;29;19946;-70
2022/03/16 16:14:09;;;;;;;;;;;;;;;13.71;100.00;98990.59;4822238;29;20535;-69
2022/03/16 16:16:39;;;;;;;;;;;;;;;13.67;100.00;98978.50;4811284;29;19954;-69
2022/03/16 16:19:08;;;;;;;;;;;;;;;13.69;100.00;98981.72;4812930;29;19951;-69
2022/03/16 16:21:35;;;;;;;;;;;;;;;13.62;100.00;98975.31;4826437;29;19955;-69
2022/03/16 16:24:03;;;;;;;;;;;;;;;13.59;100.00;98981.75;4819373;29;19970;-69
2022/03/16 16:26:37;;;;;;;;;;;;;;;13.50;100.00;98979.31;4826499;29;19954;-69
2022/03/16 16:29:28;;;;;;;;;;;;;;;13.50;100.00;98984.94;4828107;29;19961;-71
2022/03/16 16:31:55;;;;;;;;;;;;;;;13.59;100.00;98981.75;4828294;29;19952;-69
2022/03/16 16:34:23;;;;;;;;;;;;;;;13.59;100.00;98982.56;4827122;29;20247;-70
2022/03/16 16:36:53;;;;;;;;;;;;;;;13.48;100.00;98989.34;4824320;29;19955;-69
2022/03/16 16:39:20;;;;;;;;;;;;;;;13.50;100.00;98989.75;4819740;29;19957;-69
2022/03/16 16:41:47;;;;;;;;;;;;;;;13.41;100.00;98990.16;4828619;29;19954;-70
2022/03/16 16:44:15;;;;;;;;;;;;;;;13.33;100.00;98984.91;4827608;29;19975;-70
2022/03/16 16:46:42;;;;;;;;;;;;;;;13.34;100.00;98992.97;4828364;29;19952;-70
2022/03/16 16:49:10;;;;;;;;;;;;;;;13.28;100.00;98993.78;4828628;29;19959;-70
2022/03/16 16:51:38;;;;;;;;;;;;;;;13.18;100.00;99004.56;4824222;29;19949;-70
2022/03/16 16:54:06;;;;;;;;;;;;;;;13.12;100.00;99008.16;4830936;29;19955;-70
2022/03/16 16:56:33;;;;;;;;;;;;;;;13.24;100.00;98999.38;4828714;29;19953;-70
2022/03/16 16:59:02;;;;;;;;;;;;;;;13.21;100.00;99002.97;4825797;29;19957;-70
2022/03/16 17:01:29;;;;;;;;;;;;;;;13.09;100.00;99006.16;4826972;29;19951;-70
2022/03/16 17:03:58;;;;;;;;;;;;;;;13.04;100.00;99006.50;4829092;29;20396;-69
2022/03/16 17:06:25;;;;;;;;;;;;;;;12.97;100.00;99010.09;4825771;29;20296;-69
2022/03/16 17:08:52;;;;;;;;;;;;;;;12.92;100.00;99002.06;4827851;29;20214;-69
2022/03/16 17:11:20;;;;;;;;;;;;;;;12.89;100.00;99007.66;4818356;29;19970;-69
2022/03/16 17:13:54;;;;;;;;;;;;;;;12.87;100.00;99004.44;4827874;29;19974;-69
2022/03/16 17:16:21;;;;;;;;;;;;;;;12.85;100.00;99009.66;4826167;29;20245;-69
2022/03/16 17:18:50;;;;;;;;;;;;;;;12.78;100.00;99006.84;4825175;29;19956;-69
2022/03/16 17:21:17;;;;;;;;;;;;;;;12.76;100.00;99012.03;4835154;29;19953;-69
2022/03/16 17:23:45;;;;;;;;;;;;;;;12.72;100.00;99019.63;4839791;29;19988;-69
2022/03/16 17:26:12;;;;;;;;;;;;;;;12.62;100.00;99024.00;4822386;29;19949;-70
2022/03/16 17:28:40;;;;;;;;;;;;;;;12.59;100.00;99030.41;4825666;29;19952;-70
2022/03/16 17:31:08;;;;;;;;;;;;;;;12.53;100.00;99029.16;4826812;29;19954;-70
2022/03/16 17:33:35;;;;;;;;;;;;;;;12.52;100.00;99033.16;4829870;29;19949;-69
2022/03/16 17:36:03;;;;;;;;;;;;;;;12.55;100.00;99029.56;4821921;29;20259;-69
2022/03/16 17:38:30;;;;;;;;;;;;;;;12.57;100.00;99043.22;4824588;29;20367;-70
2022/03/16 17:46:29;;;;;;;;;;;;;;;12.38;100.00;99038.69;4824965;29;20031;-69
2022/03/16 17:49:04;;;;;;;;;;;;;;;12.37;100.00;99040.69;4809935;29;19952;-69
2022/03/16 17:51:32;;;;;;;;;;;;;;;12.32;100.00;99040.28;4825969;29;20251;-70
2022/03/16 17:54:00;;;;;;;;;;;;;;;12.29;100.00;99047.47;4837654;29;19958;-69
2022/03/16 17:56:46;;;;;;;;;;;;;;;12.29;100.00;99041.88;4832793;29;19949;-69
2022/03/16 17:59:14;;;;;;;;;;;;;;;12.27;100.00;99052.66;4837314;29;19947;-70
2022/03/16 18:01:43;;;;;;;;;;;;;;;12.27;100.00;99047.06;4830389;29;19948;-70
2022/03/16 18:04:11;;;;;;;;;;;;;;;12.34;100.00;99047.09;4824630;29;19975;-69
2022/03/16 18:06:39;;;;;;;;;;;;;;;12.27;100.00;99035.03;4825500;29;19958;-69
2022/03/16 18:09:10;;;;;;;;;;;;;;;12.23;100.00;99046.22;4827300;29;19955;-69
2022/03/16 18:14:24;;;;;;;;;;;;;;;12.15;100.00;99041.75;4816155;29;20329;-70
2022/03/16 18:16:52;;;;;;;;;;;;;;;12.12;100.00;99044.53;4832750;29;20594;-70
2022/03/16 18:19:19;;;;;;;;;;;;;;;12.13;100.00;99041.34;4831453;29;19965;-70
2022/03/16 18:24:32;;;;;;;;;;;;;;;12.12;100.00;99048.16;4824174;29;19967;-69
2022/03/16 18:27:03;;;;;;;;;;;;;;;12.11;100.00;99048.53;4826378;29;19982;-69
2022/03/16 18:29:32;;;;;;;;;;;;;;;12.10;100.00;99050.56;4826917;29;19958;-69
2022/03/16 18:32:00;;;;;;;;;;;;;;;12.13;100.00;99052.56;4827136;29;19974;-69
2022/03/16 18:34:27;;;;;;;;;;;;;;;12.06;100.00;99046.91;4829699;29;19958;-69
2022/03/16 18:36:54;;;;;;;;;;;;;;;12.04;100.00;99054.91;4831873;29;19951;-69
2022/03/16 18:39:22;;;;;;;;;;;;;;;12.06;100.00;99062.91;4829042;29;19960;-69
2022/03/16 18:41:50;;;;;;;;;;;;;;;12.02;100.00;99057.28;4828959;29;20349;-69
2022/03/16 18:44:18;;;;;;;;;;;;;;;12.07;100.00;99058.94;4825926;29;19976;-69
2022/03/16 18:46:46;;;;;;;;;;;;;;;12.02;100.00;99064.91;4825190;29;19948;-69
2022/03/16 18:49:14;;;;;;;;;;;;;;;11.98;100.00;99073.28;4827952;29;19948;-69
2022/03/16 18:54:28;;;;;;;;;;;;;;;12.05;100.00;99081.75;4824876;29;19952;-69
2022/03/16 18:56:55;;;;;;;;;;;;;;;12.04;100.00;99077.31;4833662;29;19947;-69
2022/03/16 18:59:22;;;;;;;;;;;;;;;12.15;100.00;99088.63;4828850;29;19959;-69
2022/03/16 19:01:52;;;;;;;;;;;;;;;12.13;100.00;99085.41;4829249;29;19957;-69
2022/03/16 19:04:20;;;;;;;;;;;;;;;12.04;100.00;99082.13;4822583;29;20272;-69
2022/03/16 19:06:51;;;;;;;;;;;;;;;12.02;100.00;99092.94;4826759;29;19950;-69
2022/03/16 19:09:22;;;;;;;;;;;;;;;12.02;100.00;99093.72;4824699;29;19970;-69
2022/03/16 19:14:36;;;;;;;;;;;;;;;11.98;100.00;99092.91;4841244;29;19949;-69
2022/03/16 19:17:12;;;;;;;;;;;;;;;12.05;100.00;99084.56;4828992;29;19978;-69
2022/03/16 19:19:39;;;;;;;;;;;;;;;11.99;100.00;99102.91;4845611;29;19961;-69
2022/03/16 19:22:09;;;;;;;;;;;;;;;11.98;100.00;99106.13;4810521;29;19953;-69
2022/03/16 19:24:37;;;;;;;;;;;;;;;11.98;100.00;99100.50;4831102;29;19963;-69
2022/03/16 19:27:09;;;;;;;;;;;;;;;11.98;100.00;99104.13;4830609;29;19966;-69
2022/03/16 19:29:37;;;;;;;;;;;;;;;11.97;100.00;99108.09;4836032;29;19948;-70
2022/03/16 19:32:06;;;;;;;;;;;;;;;11.97;100.00;99098.88;4821142;29;19954;-69
2022/03/16 19:34:34;;;;;;;;;;;;;;;11.96;100.00;99106.47;4833797;29;19948;-69
2022/03/16 19:37:02;;;;;;;;;;;;;;;11.98;100.00;99103.31;4830233;29;19961;-69
2022/03/16 19:39:36;;;;;;;;;;;;;;;11.95;100.00;99106.88;4830236;29;19956;-69
2022/03/16 19:42:03;;;;;;;;;;;;;;;11.91;100.00;99117.28;4832294;29;19949;-69
2022/03/16 19:44:31;;;;;;;;;;;;;;;11.87;100.00;99108.81;4830750;29;19967;-69
2022/03/16 19:46:58;;;;;;;;;;;;;;;11.92;100.00;99113.25;4840140;29;19952;-69